sensor_id;sensor_type;location;lat;lon;timestamp;pressure;altitude;pressure_sealevel;temperature;humidity
9335;BME280;4706;41.844;26.082;2022-09-06T00:00:13;101462.56;;;23.21;52.93
9335;BME280;4706;41.844;26.082;2022-09-06T00:02:40;101454.41;;;23.16;53.17
9335;BME280;4706;41.844;26.082;2022-09-06T00:05:07;101467.44;;;23.24;53.41
9335;BME280;4706;41.844;26.082;2022-09-06T00:07:34;101461.56;;;23.14;53.36
9335;BME280;4706;41.844;26.082;2022-09-06T00:09:59;101468.88;;;23.18;53.31
9335;BME280;4706;41.844;26.082;2022-09-06T00:12:26;101464.09;;;23.19;53.13
9335;BME280;4706;41.844;26.082;2022-09-06T00:14:51;101464.91;;;23.19;53.26
9335;BME280;4706;41.844;26.082;2022-09-06T00:17:17;101465.19;;;23.14;53.80
9335;BME280;4706;41.844;26.082;2022-09-06T00:19:43;101459.91;;;23.13;54.03
9335;BME280;4706;41.844;26.082;2022-09-06T00:22:09;101454.16;;;23.06;54.02
9335;BME280;4706;41.844;26.082;2022-09-06T00:24:34;101458.69;;;23.10;53.88
9335;BME280;4706;41.844;26.082;2022-09-06T00:27:02;101461.31;;;23.03;54.07
9335;BME280;4706;41.844;26.082;2022-09-06T00:29:28;101457.53;;;22.95;54.15
9335;BME280;4706;41.844;26.082;2022-09-06T00:31:53;101460.69;;;22.94;54.25
9335;BME280;4706;41.844;26.082;2022-09-06T00:34:19;101461.41;;;22.91;54.10
9335;BME280;4706;41.844;26.082;2022-09-06T00:36:44;101461.31;;;22.87;54.19
9335;BME280;4706;41.844;26.082;2022-09-06T00:39:10;101449.63;;;22.85;53.90
9335;BME280;4706;41.844;26.082;2022-09-06T00:41:35;101448.72;;;22.81;54.07
9335;BME280;4706;41.844;26.082;2022-09-06T00:44:01;101451.06;;;22.79;53.96
9335;BME280;4706;41.844;26.082;2022-09-06T00:46:29;101438.75;;;22.68;53.95
9335;BME280;4706;41.844;26.082;2022-09-06T00:48:58;101448.53;;;22.74;54.10
9335;BME280;4706;41.844;26.082;2022-09-06T00:51:26;101435.78;;;22.76;54.09
9335;BME280;4706;41.844;26.082;2022-09-06T00:53:54;101452.25;;;22.78;54.18
9335;BME280;4706;41.844;26.082;2022-09-06T00:56:20;101439.69;;;22.72;54.21
9335;BME280;4706;41.844;26.082;2022-09-06T00:58:47;101442.41;;;22.68;54.46
9335;BME280;4706;41.844;26.082;2022-09-06T01:01:13;101438.41;;;22.69;54.11
9335;BME280;4706;41.844;26.082;2022-09-06T01:03:39;101439.84;;;22.63;54.22
9335;BME280;4706;41.844;26.082;2022-09-06T01:16:49;101439.75;;;22.44;53.25
9335;BME280;4706;41.844;26.082;2022-09-06T01:30:18;101459.31;;;22.12;53.72
9335;BME280;4706;41.844;26.082;2022-09-06T01:37:44;101457.41;;;22.00;53.94
9335;BME280;4706;41.844;26.082;2022-09-06T01:40:10;101448.00;;;22.09;53.85
9335;BME280;4706;41.844;26.082;2022-09-06T01:42:36;101444.28;;;22.04;54.11
9335;BME280;4706;41.844;26.082;2022-09-06T01:45:09;101449.91;;;22.04;54.17
9335;BME280;4706;41.844;26.082;2022-09-06T01:55:57;101445.63;;;21.95;54.11
9335;BME280;4706;41.844;26.082;2022-09-06T01:59:00;101445.06;;;21.89;54.25
9335;BME280;4706;41.844;26.082;2022-09-06T02:01:44;101441.31;;;21.85;54.49
9335;BME280;4706;41.844;26.082;2022-09-06T02:04:30;101441.28;;;21.69;54.90
9335;BME280;4706;41.844;26.082;2022-09-06T02:07:02;101445.97;;;21.65;55.23
9335;BME280;4706;41.844;26.082;2022-09-06T02:09:36;101443.25;;;21.69;55.12
9335;BME280;4706;41.844;26.082;2022-09-06T02:12:06;101432.16;;;21.72;54.76
9335;BME280;4706;41.844;26.082;2022-09-06T02:14:44;101418.94;;;21.57;54.81
9335;BME280;4706;41.844;26.082;2022-09-06T02:17:14;101420.31;;;21.63;55.19
9335;BME280;4706;41.844;26.082;2022-09-06T02:19:46;101423.22;;;21.67;54.83
9335;BME280;4706;41.844;26.082;2022-09-06T02:22:16;101423.00;;;21.60;54.71
9335;BME280;4706;41.844;26.082;2022-09-06T02:24:44;101423.59;;;21.53;54.93
9335;BME280;4706;41.844;26.082;2022-09-06T02:27:12;101415.81;;;21.46;54.88
9335;BME280;4706;41.844;26.082;2022-09-06T02:29:39;101414.75;;;21.51;55.00
9335;BME280;4706;41.844;26.082;2022-09-06T02:32:20;101415.22;;;21.53;54.96
9335;BME280;4706;41.844;26.082;2022-09-06T02:34:51;101416.94;;;21.57;54.86
9335;BME280;4706;41.844;26.082;2022-09-06T02:37:17;101428.34;;;21.65;54.64
9335;BME280;4706;41.844;26.082;2022-09-06T02:39:43;101423.00;;;21.60;54.52
9335;BME280;4706;41.844;26.082;2022-09-06T02:42:10;101411.59;;;21.52;54.44
9335;BME280;4706;41.844;26.082;2022-09-06T02:44:37;101422.19;;;21.59;54.25
9335;BME280;4706;41.844;26.082;2022-09-06T02:47:03;101425.13;;;21.50;54.49
9335;BME280;4706;41.844;26.082;2022-09-06T02:49:29;101421.56;;;21.38;54.68
9335;BME280;4706;41.844;26.082;2022-09-06T02:51:55;101425.44;;;21.33;54.96
9335;BME280;4706;41.844;26.082;2022-09-06T02:54:21;101425.44;;;21.33;54.64
9335;BME280;4706;41.844;26.082;2022-09-06T02:56:47;101422.38;;;21.26;54.65
9335;BME280;4706;41.844;26.082;2022-09-06T02:59:13;101424.47;;;21.29;54.95
9335;BME280;4706;41.844;26.082;2022-09-06T03:01:38;101439.59;;;21.28;55.14
9335;BME280;4706;41.844;26.082;2022-09-06T03:04:04;101435.75;;;21.32;55.00
9335;BME280;4706;41.844;26.082;2022-09-06T03:06:30;101439.06;;;21.34;54.99
9335;BME280;4706;41.844;26.082;2022-09-06T03:08:56;101436.38;;;21.38;54.99
9335;BME280;4706;41.844;26.082;2022-09-06T03:11:21;101435.44;;;21.34;54.61
9335;BME280;4706;41.844;26.082;2022-09-06T03:13:47;101431.91;;;21.25;54.98
9335;BME280;4706;41.844;26.082;2022-09-06T03:16:15;101429.03;;;21.21;54.98
9335;BME280;4706;41.844;26.082;2022-09-06T03:18:41;101438.78;;;21.27;54.92
9335;BME280;4706;41.844;26.082;2022-09-06T03:21:06;101431.34;;;21.19;55.05
9335;BME280;4706;41.844;26.082;2022-09-06T03:23:32;101441.25;;;21.29;55.36
9335;BME280;4706;41.844;26.082;2022-09-06T03:25:58;101442.78;;;21.26;55.10
9335;BME280;4706;41.844;26.082;2022-09-06T03:28:24;101429.03;;;21.21;55.32
9335;BME280;4706;41.844;26.082;2022-09-06T03:30:51;101428.31;;;21.24;55.50
9335;BME280;4706;41.844;26.082;2022-09-06T03:33:17;101435.28;;;21.30;55.30
9335;BME280;4706;41.844;26.082;2022-09-06T03:35:56;101432.16;;;21.20;55.35
9335;BME280;4706;41.844;26.082;2022-09-06T03:38:23;101440.22;;;21.21;55.34
9335;BME280;4706;41.844;26.082;2022-09-06T03:40:49;101442.44;;;21.16;55.83
9335;BME280;4706;41.844;26.082;2022-09-06T03:43:17;101441.16;;;21.13;55.70
9335;BME280;4706;41.844;26.082;2022-09-06T03:45:52;101442.78;;;21.14;55.95
9335;BME280;4706;41.844;26.082;2022-09-06T03:48:19;101444.44;;;21.03;56.08
9335;BME280;4706;41.844;26.082;2022-09-06T03:50:46;101442.22;;;20.96;56.20
9335;BME280;4706;41.844;26.082;2022-09-06T03:53:13;101446.53;;;20.94;56.45
9335;BME280;4706;41.844;26.082;2022-09-06T03:55:39;101453.66;;;20.91;56.56
9335;BME280;4706;41.844;26.082;2022-09-06T03:58:04;101448.50;;;20.93;56.28
9335;BME280;4706;41.844;26.082;2022-09-06T04:00:29;101444.91;;;20.93;56.23
9335;BME280;4706;41.844;26.082;2022-09-06T04:02:57;101445.72;;;20.93;55.92
9335;BME280;4706;41.844;26.082;2022-09-06T04:05:23;101458.63;;;20.98;56.00
9335;BME280;4706;41.844;26.082;2022-09-06T04:07:49;101445.97;;;20.88;55.85
9335;BME280;4706;41.844;26.082;2022-09-06T04:10:14;101456.31;;;21.00;55.98
9335;BME280;4706;41.844;26.082;2022-09-06T04:12:40;101446.63;;;20.97;55.73
9335;BME280;4706;41.844;26.082;2022-09-06T04:15:06;101458.06;;;21.04;55.59
9335;BME280;4706;41.844;26.082;2022-09-06T04:17:32;101450.84;;;21.03;55.46
9335;BME280;4706;41.844;26.082;2022-09-06T04:19:57;101451.66;;;21.04;55.82
9335;BME280;4706;41.844;26.082;2022-09-06T04:22:23;101457.25;;;21.04;55.95
9335;BME280;4706;41.844;26.082;2022-09-06T04:24:48;101466.09;;;21.06;55.89
9335;BME280;4706;41.844;26.082;2022-09-06T04:27:14;101456.88;;;21.05;55.89
9335;BME280;4706;41.844;26.082;2022-09-06T04:29:39;101454.91;;;21.06;56.01
9335;BME280;4706;41.844;26.082;2022-09-06T04:32:05;101455.72;;;21.19;56.13
9335;BME280;4706;41.844;26.082;2022-09-06T04:34:30;101457.09;;;21.25;56.01
9335;BME280;4706;41.844;26.082;2022-09-06T04:36:56;101463.88;;;21.36;55.69
9335;BME280;4706;41.844;26.082;2022-09-06T04:39:22;101466.31;;;21.50;54.73
9335;BME280;4706;41.844;26.082;2022-09-06T04:41:48;101465.84;;;21.48;54.98
9335;BME280;4706;41.844;26.082;2022-09-06T04:44:13;101463.06;;;21.48;55.03
9335;BME280;4706;41.844;26.082;2022-09-06T04:46:40;101458.34;;;21.64;55.05
9335;BME280;4706;41.844;26.082;2022-09-06T04:49:06;101451.34;;;21.70;54.53
9335;BME280;4706;41.844;26.082;2022-09-06T04:51:32;101454.78;;;21.79;54.45
9335;BME280;4706;41.844;26.082;2022-09-06T04:53:58;101457.78;;;21.87;54.55
9335;BME280;4706;41.844;26.082;2022-09-06T04:56:24;101466.94;;;21.99;54.42
9335;BME280;4706;41.844;26.082;2022-09-06T04:58:52;101465.06;;;22.16;54.02
9335;BME280;4706;41.844;26.082;2022-09-06T05:01:18;101466.88;;;22.24;53.70
9335;BME280;4706;41.844;26.082;2022-09-06T05:03:44;101462.72;;;22.34;53.72
9335;BME280;4706;41.844;26.082;2022-09-06T05:06:20;101466.44;;;22.38;53.68
9335;BME280;4706;41.844;26.082;2022-09-06T05:08:46;101462.66;;;22.46;53.59
9335;BME280;4706;41.844;26.082;2022-09-06T05:11:13;101463.81;;;22.45;52.81
9335;BME280;4706;41.844;26.082;2022-09-06T05:13:39;101458.19;;;22.29;53.57
9335;BME280;4706;41.844;26.082;2022-09-06T05:16:06;101459.81;;;22.30;53.86
9335;BME280;4706;41.844;26.082;2022-09-06T05:18:33;101450.34;;;22.35;54.19
9335;BME280;4706;41.844;26.082;2022-09-06T05:20:59;101461.09;;;22.48;54.26
9335;BME280;4706;41.844;26.082;2022-09-06T05:23:25;101444.28;;;22.48;53.99
9335;BME280;4706;41.844;26.082;2022-09-06T05:25:51;101457.41;;;22.60;53.87
9335;BME280;4706;41.844;26.082;2022-09-06T05:28:17;101454.69;;;22.64;53.93
9335;BME280;4706;41.844;26.082;2022-09-06T05:30:43;101459.41;;;22.75;53.46
9335;BME280;4706;41.844;26.082;2022-09-06T05:33:11;101455.06;;;22.78;53.41
9335;BME280;4706;41.844;26.082;2022-09-06T05:35:37;101455.13;;;22.82;53.83
9335;BME280;4706;41.844;26.082;2022-09-06T05:38:03;101452.63;;;22.92;53.53
9335;BME280;4706;41.844;26.082;2022-09-06T05:40:29;101444.75;;;22.98;53.44
9335;BME280;4706;41.844;26.082;2022-09-06T05:42:54;101460.69;;;22.94;54.24
9335;BME280;4706;41.844;26.082;2022-09-06T05:45:20;101442.41;;;23.00;54.03
9335;BME280;4706;41.844;26.082;2022-09-06T05:47:45;101452.59;;;23.08;54.03
9335;BME280;4706;41.844;26.082;2022-09-06T05:50:11;101452.47;;;23.20;53.99
9335;BME280;4706;41.844;26.082;2022-09-06T05:52:36;101446.94;;;23.40;53.50
9335;BME280;4706;41.844;26.082;2022-09-06T05:55:03;101452.72;;;23.47;53.73
9335;BME280;4706;41.844;26.082;2022-09-06T05:57:29;101459.00;;;23.60;53.55
9335;BME280;4706;41.844;26.082;2022-09-06T05:59:55;101452.13;;;23.77;53.09
9335;BME280;4706;41.844;26.082;2022-09-06T06:02:21;101458.13;;;23.94;52.87
9335;BME280;4706;41.844;26.082;2022-09-06T06:04:47;101460.03;;;24.10;52.80
9335;BME280;4706;41.844;26.082;2022-09-06T06:07:12;101458.75;;;24.27;52.22
9335;BME280;4706;41.844;26.082;2022-09-06T06:09:38;101457.06;;;24.41;52.13
9335;BME280;4706;41.844;26.082;2022-09-06T06:12:04;101461.00;;;24.60;51.59
9335;BME280;4706;41.844;26.082;2022-09-06T06:14:30;101448.81;;;24.75;51.14
9335;BME280;4706;41.844;26.082;2022-09-06T06:16:56;101450.38;;;24.99;50.67
9335;BME280;4706;41.844;26.082;2022-09-06T06:19:21;101444.66;;;25.18;49.72
9335;BME280;4706;41.844;26.082;2022-09-06T06:21:47;101441.38;;;25.39;49.67
9335;BME280;4706;41.844;26.082;2022-09-06T06:24:12;101443.22;;;25.58;48.96
9335;BME280;4706;41.844;26.082;2022-09-06T06:26:38;101437.38;;;25.74;48.64
9335;BME280;4706;41.844;26.082;2022-09-06T06:29:04;101430.38;;;25.95;48.69
9335;BME280;4706;41.844;26.082;2022-09-06T06:31:34;101438.75;;;26.25;47.75
9335;BME280;4706;41.844;26.082;2022-09-06T06:34:00;101432.50;;;26.42;47.28
9335;BME280;4706;41.844;26.082;2022-09-06T06:36:30;101435.56;;;26.63;46.60
9335;BME280;4706;41.844;26.082;2022-09-06T06:38:58;101441.78;;;26.87;45.79
9335;BME280;4706;41.844;26.082;2022-09-06T06:41:26;101436.66;;;27.03;45.23
9335;BME280;4706;41.844;26.082;2022-09-06T06:43:53;101436.75;;;27.14;45.01
9335;BME280;4706;41.844;26.082;2022-09-06T06:46:20;101436.88;;;27.32;44.53
9335;BME280;4706;41.844;26.082;2022-09-06T06:48:46;101441.81;;;27.56;43.91
9335;BME280;4706;41.844;26.082;2022-09-06T06:51:18;101432.41;;;28.40;48.09
9335;BME280;4706;41.844;26.082;2022-09-06T06:53:44;101435.19;;;29.36;40.48
9335;BME280;4706;41.844;26.082;2022-09-06T06:56:26;101424.28;;;29.35;39.77
9335;BME280;4706;41.844;26.082;2022-09-06T06:58:53;101439.25;;;29.35;39.71
9335;BME280;4706;41.844;26.082;2022-09-06T07:01:20;101436.00;;;29.29;39.16
9335;BME280;4706;41.844;26.082;2022-09-06T07:03:47;101433.19;;;29.29;39.70
9335;BME280;4706;41.844;26.082;2022-09-06T07:06:13;101423.06;;;29.32;39.14
9335;BME280;4706;41.844;26.082;2022-09-06T07:08:39;101419.81;;;29.34;38.76
9335;BME280;4706;41.844;26.082;2022-09-06T07:11:06;101427.09;;;29.42;39.16
9335;BME280;4706;41.844;26.082;2022-09-06T07:13:32;101427.84;;;29.53;38.74
9335;BME280;4706;41.844;26.082;2022-09-06T07:16:22;101432.28;;;29.68;38.13
9335;BME280;4706;41.844;26.082;2022-09-06T07:18:51;101425.72;;;29.79;37.96
9335;BME280;4706;41.844;26.082;2022-09-06T07:21:19;101429.00;;;29.73;36.52
9335;BME280;4706;41.844;26.082;2022-09-06T07:23:45;101435.09;;;29.72;37.53
9335;BME280;4706;41.844;26.082;2022-09-06T07:26:21;101429.72;;;29.92;37.01
9335;BME280;4706;41.844;26.082;2022-09-06T07:28:51;101410.63;;;30.03;36.61
9335;BME280;4706;41.844;26.082;2022-09-06T07:31:16;101418.59;;;30.26;36.17
9335;BME280;4706;41.844;26.082;2022-09-06T07:33:42;101419.84;;;30.21;36.10
9335;BME280;4706;41.844;26.082;2022-09-06T07:36:07;101413.91;;;29.94;36.51
9335;BME280;4706;41.844;26.082;2022-09-06T07:38:34;101415.06;;;30.00;35.57
9335;BME280;4706;41.844;26.082;2022-09-06T07:41:07;101413.38;;;30.21;35.75
9335;BME280;4706;41.844;26.082;2022-09-06T07:43:33;101416.41;;;30.48;34.49
9335;BME280;4706;41.844;26.082;2022-09-06T07:46:11;101407.78;;;30.62;33.84
9335;BME280;4706;41.844;26.082;2022-09-06T07:48:39;101414.41;;;30.41;32.78
9335;BME280;4706;41.844;26.082;2022-09-06T07:51:06;101426.47;;;29.90;32.76
9335;BME280;4706;41.844;26.082;2022-09-06T07:53:33;101417.72;;;29.52;33.19
9335;BME280;4706;41.844;26.082;2022-09-06T07:56:00;101415.75;;;29.45;32.79
9335;BME280;4706;41.844;26.082;2022-09-06T07:58:27;101413.75;;;29.35;33.35
9335;BME280;4706;41.844;26.082;2022-09-06T08:00:53;101406.41;;;29.45;33.26
9335;BME280;4706;41.844;26.082;2022-09-06T08:03:19;101413.69;;;29.49;33.23
9335;BME280;4706;41.844;26.082;2022-09-06T08:05:48;101395.50;;;29.40;33.83
9335;BME280;4706;41.844;26.082;2022-09-06T08:08:14;101401.09;;;29.65;33.55
9335;BME280;4706;41.844;26.082;2022-09-06T08:10:40;101395.50;;;29.43;33.43
9335;BME280;4706;41.844;26.082;2022-09-06T08:13:05;101393.00;;;29.60;33.25
9335;BME280;4706;41.844;26.082;2022-09-06T08:15:31;101371.75;;;29.96;33.53
9335;BME280;4706;41.844;26.082;2022-09-06T08:17:57;101380.94;;;30.15;31.92
9335;BME280;4706;41.844;26.082;2022-09-06T08:20:23;101380.47;;;30.27;31.50
9335;BME280;4706;41.844;26.082;2022-09-06T08:22:48;101381.44;;;30.58;31.61
9335;BME280;4706;41.844;26.082;2022-09-06T08:25:14;101385.78;;;30.70;31.44
9335;BME280;4706;41.844;26.082;2022-09-06T08:27:39;101361.19;;;30.53;30.99
9335;BME280;4706;41.844;26.082;2022-09-06T08:30:05;101379.25;;;30.77;31.16
9335;BME280;4706;41.844;26.082;2022-09-06T08:32:34;101369.75;;;30.94;30.90
9335;BME280;4706;41.844;26.082;2022-09-06T08:35:03;101375.34;;;31.01;31.08
9335;BME280;4706;41.844;26.082;2022-09-06T08:37:29;101373.19;;;30.75;30.74
9335;BME280;4706;41.844;26.082;2022-09-06T08:39:54;101374.19;;;30.50;31.50
9335;BME280;4706;41.844;26.082;2022-09-06T08:42:20;101370.47;;;30.60;31.17
9335;BME280;4706;41.844;26.082;2022-09-06T08:44:51;101361.31;;;30.38;30.28
9335;BME280;4706;41.844;26.082;2022-09-06T08:47:20;101368.69;;;30.32;30.27
9335;BME280;4706;41.844;26.082;2022-09-06T08:49:55;101367.69;;;30.53;30.40
9335;BME280;4706;41.844;26.082;2022-09-06T09:00:50;101341.84;;;31.81;29.33
9335;BME280;4706;41.844;26.082;2022-09-06T09:03:20;101346.28;;;32.12;28.08
9335;BME280;4706;41.844;26.082;2022-09-06T09:05:51;101339.53;;;32.26;27.88
9335;BME280;4706;41.844;26.082;2022-09-06T09:08:27;101340.88;;;31.95;27.71
9335;BME280;4706;41.844;26.082;2022-09-06T09:11:08;101341.09;;;31.77;28.13
9335;BME280;4706;41.844;26.082;2022-09-06T09:13:52;101331.56;;;31.63;28.13
9335;BME280;4706;41.844;26.082;2022-09-06T09:16:18;101328.34;;;31.31;28.60
9335;BME280;4706;41.844;26.082;2022-09-06T09:18:53;101307.31;;;31.21;28.03
9335;BME280;4706;41.844;26.082;2022-09-06T09:21:22;101311.19;;;31.38;28.48
9335;BME280;4706;41.844;26.082;2022-09-06T09:23:56;101314.44;;;31.36;28.70
9335;BME280;4706;41.844;26.082;2022-09-06T09:26:24;101293.56;;;31.50;27.85
9335;BME280;4706;41.844;26.082;2022-09-06T09:29:10;101306.31;;;31.38;28.52
9335;BME280;4706;41.844;26.082;2022-09-06T09:31:47;101309.25;;;31.31;28.72
9335;BME280;4706;41.844;26.082;2022-09-06T09:37:17;101299.13;;;31.57;28.52
9335;BME280;4706;41.844;26.082;2022-09-06T09:39:45;101300.94;;;31.44;28.22
9335;BME280;4706;41.844;26.082;2022-09-06T09:42:15;101297.25;;;31.47;28.20
9335;BME280;4706;41.844;26.082;2022-09-06T09:44:48;101292.81;;;31.73;27.97
9335;BME280;4706;41.844;26.082;2022-09-06T09:47:23;101291.38;;;32.12;27.26
9335;BME280;4706;41.844;26.082;2022-09-06T09:49:49;101284.31;;;31.97;27.13
9335;BME280;4706;41.844;26.082;2022-09-06T09:52:26;101292.69;;;31.80;27.32
9335;BME280;4706;41.844;26.082;2022-09-06T09:55:00;101285.56;;;31.96;27.38
9335;BME280;4706;41.844;26.082;2022-09-06T09:57:25;101286.81;;;31.95;27.32
9335;BME280;4706;41.844;26.082;2022-09-06T09:59:55;101286.19;;;31.80;27.41
9335;BME280;4706;41.844;26.082;2022-09-06T10:02:32;101283.69;;;31.85;27.92
9335;BME280;4706;41.844;26.082;2022-09-06T10:07:42;101272.25;;;31.35;28.11
9335;BME280;4706;41.844;26.082;2022-09-06T10:10:14;101272.19;;;31.08;28.65
9335;BME280;4706;41.844;26.082;2022-09-06T10:12:44;101259.44;;;31.19;27.83
9335;BME280;4706;41.844;26.082;2022-09-06T10:15:11;101262.66;;;31.52;28.40
9335;BME280;4706;41.844;26.082;2022-09-06T10:17:55;101260.47;;;32.14;26.72
9335;BME280;4706;41.844;26.082;2022-09-06T10:20:32;101266.41;;;32.47;26.56
9335;BME280;4706;41.844;26.082;2022-09-06T10:23:28;101266.03;;;32.45;25.93
9335;BME280;4706;41.844;26.082;2022-09-06T10:28:40;101253.34;;;32.26;26.47
9335;BME280;4706;41.844;26.082;2022-09-06T10:36:38;101231.97;;;33.01;25.43
9335;BME280;4706;41.844;26.082;2022-09-06T10:47:54;101229.00;;;33.24;24.44
9335;BME280;4706;41.844;26.082;2022-09-06T10:50:26;101230.84;;;33.15;25.25
9335;BME280;4706;41.844;26.082;2022-09-06T10:53:00;101217.09;;;33.29;24.98
9335;BME280;4706;41.844;26.082;2022-09-06T10:55:29;101212.25;;;33.26;24.77
9335;BME280;4706;41.844;26.082;2022-09-06T10:57:59;101209.28;;;33.50;24.65
9335;BME280;4706;41.844;26.082;2022-09-06T11:00:34;101200.97;;;33.88;24.19
9335;BME280;4706;41.844;26.082;2022-09-06T11:03:25;101205.78;;;34.07;24.47
9335;BME280;4706;41.844;26.082;2022-09-06T11:05:54;101201.00;;;34.04;24.02
9335;BME280;4706;41.844;26.082;2022-09-06T11:11:12;101192.72;;;33.61;23.64
9335;BME280;4706;41.844;26.082;2022-09-06T11:13:40;101197.06;;;33.66;23.98
9335;BME280;4706;41.844;26.082;2022-09-06T11:16:17;101193.16;;;33.59;24.60
9335;BME280;4706;41.844;26.082;2022-09-06T11:19:04;101191.28;;;33.17;25.18
9335;BME280;4706;41.844;26.082;2022-09-06T11:27:20;101193.75;;;32.15;26.27
9335;BME280;4706;41.844;26.082;2022-09-06T11:29:48;101195.59;;;32.25;26.20
9335;BME280;4706;41.844;26.082;2022-09-06T11:32:41;101185.66;;;32.13;25.81
9335;BME280;4706;41.844;26.082;2022-09-06T11:37:47;101177.19;;;32.73;25.04
9335;BME280;4706;41.844;26.082;2022-09-06T11:47:36;101170.28;;;33.43;24.78
9335;BME280;4706;41.844;26.082;2022-09-06T11:53:15;101176.41;;;32.89;25.07
9335;BME280;4706;41.844;26.082;2022-09-06T12:00:43;101145.72;;;33.49;24.50
9335;BME280;4706;41.844;26.082;2022-09-06T12:08:42;101136.31;;;33.98;23.46
9335;BME280;4706;41.844;26.082;2022-09-06T12:14:29;101134.88;;;34.06;23.33
9335;BME280;4706;41.844;26.082;2022-09-06T12:20:07;101124.22;;;33.45;24.02
9335;BME280;4706;41.844;26.082;2022-09-06T12:25:03;101124.00;;;32.67;24.52
9335;BME280;4706;41.844;26.082;2022-09-06T12:27:36;101123.13;;;32.30;25.08
9335;BME280;4706;41.844;26.082;2022-09-06T12:30:11;101132.84;;;31.89;25.57
9335;BME280;4706;41.844;26.082;2022-09-06T12:32:40;101119.22;;;32.00;25.27
9335;BME280;4706;41.844;26.082;2022-09-06T12:35:17;101119.59;;;32.22;25.00
9335;BME280;4706;41.844;26.082;2022-09-06T12:37:58;101114.44;;;32.37;24.70
9335;BME280;4706;41.844;26.082;2022-09-06T12:40:28;101123.91;;;32.30;25.29
9335;BME280;4706;41.844;26.082;2022-09-06T12:42:54;101116.75;;;32.02;25.16
9335;BME280;4706;41.844;26.082;2022-09-06T12:45:21;101115.16;;;31.54;26.06
9335;BME280;4706;41.844;26.082;2022-09-06T12:47:48;101106.56;;;31.07;26.69
9335;BME280;4706;41.844;26.082;2022-09-06T12:50:21;101114.59;;;30.85;26.29
9335;BME280;4706;41.844;26.082;2022-09-06T12:52:51;101115.13;;;30.77;27.07
9335;BME280;4706;41.844;26.082;2022-09-06T12:55:35;101115.91;;;30.81;26.43
9335;BME280;4706;41.844;26.082;2022-09-06T12:58:09;101115.75;;;30.88;26.59
9335;BME280;4706;41.844;26.082;2022-09-06T13:00:39;101112.31;;;31.04;26.34
9335;BME280;4706;41.844;26.082;2022-09-06T13:05:40;101106.97;;;31.33;25.85
9335;BME280;4706;41.844;26.082;2022-09-06T13:08:12;101107.50;;;31.51;26.23
9335;BME280;4706;41.844;26.082;2022-09-06T13:10:42;101105.31;;;31.35;26.02
9335;BME280;4706;41.844;26.082;2022-09-06T13:13:10;101096.41;;;31.06;26.78
9335;BME280;4706;41.844;26.082;2022-09-06T13:15:37;101101.63;;;31.11;26.69
9335;BME280;4706;41.844;26.082;2022-09-06T13:21:06;101106.09;;;30.85;26.43
9335;BME280;4706;41.844;26.082;2022-09-06T13:23:46;101101.75;;;30.77;26.50
9335;BME280;4706;41.844;26.082;2022-09-06T13:26:13;101101.81;;;30.70;26.63
9335;BME280;4706;41.844;26.082;2022-09-06T13:28:39;101084.22;;;30.52;26.71
9335;BME280;4706;41.844;26.082;2022-09-06T13:33:31;101083.81;;;30.19;27.17
9335;BME280;4706;41.844;26.082;2022-09-06T13:36:20;101078.50;;;30.24;26.83
9335;BME280;4706;41.844;26.082;2022-09-06T13:38:46;101078.94;;;30.16;27.03
9335;BME280;4706;41.844;26.082;2022-09-06T13:44:17;101078.56;;;29.80;27.33
9335;BME280;4706;41.844;26.082;2022-09-06T13:46:44;101072.19;;;29.68;27.34
9335;BME280;4706;41.844;26.082;2022-09-06T13:49:09;101074.81;;;29.86;27.93
9335;BME280;4706;41.844;26.082;2022-09-06T13:51:36;101063.69;;;30.06;27.51
9335;BME280;4706;41.844;26.082;2022-09-06T13:54:11;101075.38;;;30.08;27.15
9335;BME280;4706;41.844;26.082;2022-09-06T13:56:37;101070.88;;;30.14;26.78
9335;BME280;4706;41.844;26.082;2022-09-06T13:59:09;101070.50;;;30.09;26.72
9335;BME280;4706;41.844;26.082;2022-09-06T14:01:36;101072.81;;;30.24;26.61
9335;BME280;4706;41.844;26.082;2022-09-06T14:04:02;101069.97;;;30.24;26.70
9335;BME280;4706;41.844;26.082;2022-09-06T14:06:28;101062.88;;;30.06;26.50
9335;BME280;4706;41.844;26.082;2022-09-06T14:08:54;101063.47;;;29.86;26.68
9335;BME280;4706;41.844;26.082;2022-09-06T14:11:19;101051.22;;;29.96;26.59
9335;BME280;4706;41.844;26.082;2022-09-06T14:13:45;101071.47;;;29.98;27.04
9335;BME280;4706;41.844;26.082;2022-09-06T14:16:11;101064.56;;;29.99;26.92
9335;BME280;4706;41.844;26.082;2022-09-06T14:18:37;101068.31;;;29.89;27.33
9335;BME280;4706;41.844;26.082;2022-09-06T14:21:02;101064.28;;;29.90;26.87
9335;BME280;4706;41.844;26.082;2022-09-06T14:23:29;101066.75;;;29.85;27.14
9335;BME280;4706;41.844;26.082;2022-09-06T14:25:56;101062.63;;;29.89;27.01
9335;BME280;4706;41.844;26.082;2022-09-06T14:28:22;101067.59;;;29.82;27.16
9335;BME280;4706;41.844;26.082;2022-09-06T14:30:48;101054.34;;;29.71;27.56
9335;BME280;4706;41.844;26.082;2022-09-06T14:33:14;101060.03;;;29.71;28.18
9335;BME280;4706;41.844;26.082;2022-09-06T14:35:39;101049.47;;;29.72;27.69
9335;BME280;4706;41.844;26.082;2022-09-06T14:38:05;101057.13;;;29.75;27.67
9335;BME280;4706;41.844;26.082;2022-09-06T14:40:36;101051.84;;;29.77;27.80
9335;BME280;4706;41.844;26.082;2022-09-06T14:43:02;101049.03;;;29.73;27.54
9335;BME280;4706;41.844;26.082;2022-09-06T14:45:28;101052.34;;;29.68;27.60
9335;BME280;4706;41.844;26.082;2022-09-06T14:47:54;101053.25;;;29.55;27.65
9335;BME280;4706;41.844;26.082;2022-09-06T14:50:20;101050.63;;;29.29;28.17
9335;BME280;4706;41.844;26.082;2022-09-06T14:52:46;101053.94;;;29.24;28.21
9335;BME280;4706;41.844;26.082;2022-09-06T14:55:12;101047.81;;;29.29;28.06
9335;BME280;4706;41.844;26.082;2022-09-06T14:57:38;101050.75;;;29.19;28.22
9335;BME280;4706;41.844;26.082;2022-09-06T15:00:04;101050.34;;;29.20;27.89
9335;BME280;4706;41.844;26.082;2022-09-06T15:02:33;101052.00;;;29.14;28.31
9335;BME280;4706;41.844;26.082;2022-09-06T15:04:59;101052.72;;;29.22;28.12